Time;durP1;ratioP1;P1;durP2;ratioP2;P2;SDS_P1;SDS_P2;PMS_P1;PMS_P2;Temp;Humidity;BMP_temperature;BMP_pressure;BME280_temperature;BME280_humidity;BME280_pressure;Samples;Min_cycle;Max_cycle;Signal;HPM_P1;HPM_P2
2020/12/19 00:00:06;;;;;;;34.60;17.42;;;;;;;6.07;100.00;101153.38;4971073;28;20395;-72
2020/12/19 00:02:32;;;;;;;36.85;19.52;;;;;;;6.06;100.00;101155.19;4968583;28;20093;-73
2020/12/19 00:04:57;;;;;;;34.20;17.98;;;;;;;6.02;100.00;101152.69;4970693;28;20042;-74
2020/12/19 00:07:23;;;;;;;35.55;18.67;;;;;;;5.96;100.00;101155.59;4969849;28;20094;-74
2020/12/19 00:09:48;;;;;;;34.42;17.63;;;;;;;6.02;100.00;101152.69;4970472;28;20049;-73
2020/12/19 00:12:14;;;;;;;40.00;18.83;;;;;;;6.08;100.00;101147.13;4970576;28;20026;-74
2020/12/19 00:14:39;;;;;;;35.67;18.40;;;;;;;6.00;100.00;101149.22;4969538;28;20031;-72
2020/12/19 00:17:04;;;;;;;37.88;18.88;;;;;;;6.01;100.00;101145.63;4968040;28;20117;-73
2020/12/19 00:19:30;;;;;;;35.42;18.48;;;;;;;6.08;100.00;101142.66;4969983;28;20514;-73
2020/12/19 00:21:55;;;;;;;38.88;19.30;;;;;;;6.06;100.00;101148.97;4951855;28;20034;-74
2020/12/19 00:24:21;;;;;;;34.50;17.48;;;;;;;6.03;100.00;101142.00;4969581;28;20118;-72
2020/12/19 00:26:46;;;;;;;34.50;17.92;;;;;;;6.09;100.00;101133.75;4969419;28;20026;-73
2020/12/19 00:29:13;;;;;;;36.78;19.27;;;;;;;6.04;100.00;101134.88;4969414;28;20081;-73
2020/12/19 00:31:39;;;;;;;36.25;19.35;;;;;;;6.07;100.00;101127.59;4972285;28;20170;-73
2020/12/19 00:34:06;;;;;;;39.00;19.98;;;;;;;6.12;100.00;101126.53;4971511;28;20089;-73
2020/12/19 00:36:31;;;;;;;37.08;17.88;;;;;;;6.18;100.00;101128.97;4973136;28;20034;-73
2020/12/19 00:38:57;;;;;;;40.70;19.35;;;;;;;6.03;100.00;101122.47;4964347;28;20139;-72
2020/12/19 00:41:24;;;;;;;37.95;18.70;;;;;;;6.09;100.00;101111.56;4971903;28;20450;-74
2020/12/19 00:43:51;;;;;;;35.72;18.73;;;;;;;6.14;100.00;101122.03;4970752;28;20059;-72
2020/12/19 00:46:17;;;;;;;34.50;17.80;;;;;;;6.13;100.00;101117.63;4972588;28;20518;-73
2020/12/19 00:48:43;;;;;;;39.58;19.58;;;;;;;6.13;100.00;101113.16;4971583;28;20031;-73
2020/12/19 00:51:13;;;;;;;35.83;18.33;;;;;;;6.11;100.00;101104.34;4962719;28;20042;-73
2020/12/19 00:53:44;;;;;;;43.28;20.40;;;;;;;6.01;100.00;101100.31;4970828;28;20507;-73
2020/12/19 00:56:27;;;;;;;37.88;19.00;;;;;;;5.99;100.00;101092.38;4952895;28;20031;-74
2020/12/19 00:58:53;;;;;;;;;;;;;;;6.12;100.00;101094.56;4956070;28;20039;-72
2020/12/19 01:01:21;;;;;;;38.58;18.83;;;;;;;5.99;100.00;101094.19;4971517;28;19918;-73
2020/12/19 01:03:47;;;;;;;37.10;18.85;;;;;;;6.08;100.00;101088.50;4954300;28;20043;-72
2020/12/19 01:06:20;;;;;;;38.88;18.73;;;;;;;6.01;100.00;101087.00;4972534;28;20030;-73
2020/12/19 01:08:51;;;;;;;38.33;18.88;;;;;;;6.05;100.00;101084.16;4971929;28;20054;-72
2020/12/19 01:11:22;;;;;;;36.63;18.92;;;;;;;6.02;100.00;101078.09;4970449;28;20439;-73
2020/12/19 01:13:48;;;;;;;35.28;17.88;;;;;;;6.00;100.00;101079.94;4972888;28;20050;-72
2020/12/19 01:16:18;;;;;;;34.47;16.90;;;;;;;6.10;100.00;101086.66;4972299;28;20081;-74
2020/12/19 01:18:45;;;;;;;35.88;18.05;;;;;;;6.06;100.00;101085.03;4970697;28;20031;-73
2020/12/19 01:21:15;;;;;;;33.58;17.80;;;;;;;6.04;100.00;101089.56;4972095;28;21593;-73
2020/12/19 01:23:40;;;;;;;33.45;18.20;;;;;;;6.03;100.00;101083.38;4972782;28;20154;-74
2020/12/19 01:26:07;;;;;;;38.88;18.52;;;;;;;5.96;100.00;101075.66;4972318;28;20043;-73
2020/12/19 01:28:33;;;;;;;35.28;17.85;;;;;;;5.98;100.00;101076.50;4969365;28;20438;-73
2020/12/19 01:31:05;;;;;;;42.83;18.35;;;;;;;6.01;100.00;101076.34;4970791;28;20114;-73
2020/12/19 01:33:31;;;;;;;;;;;;;;;6.03;100.00;101074.50;4968745;28;20035;-73
2020/12/19 01:35:58;;;;;;;35.03;17.13;;;;;;;6.00;100.00;101072.81;4968783;28;19918;-73
2020/12/19 01:38:24;;;;;;;37.55;19.05;;;;;;;6.02;100.00;101078.97;4975743;28;20027;-73
2020/12/19 01:40:51;;;;;;;43.60;19.75;;;;;;;5.95;100.00;101079.25;4970111;28;20045;-71
2020/12/19 01:43:17;;;;;;;35.60;17.45;;;;;;;6.02;100.00;101083.41;4948711;28;20611;-72
2020/12/19 01:45:43;;;;;;;35.72;18.23;;;;;;;5.92;100.00;101077.59;4969669;28;20109;-72
2020/12/19 01:48:22;;;;;;;35.83;17.13;;;;;;;6.01;100.00;101081.69;4968036;28;20039;-72
2020/12/19 01:50:49;;;;;;;39.65;18.33;;;;;;;6.06;100.00;101074.34;4953193;28;20394;-72
2020/12/19 01:53:19;;;;;;;39.30;18.85;;;;;;;6.06;100.00;101079.69;4970450;28;20031;-72
2020/12/19 01:55:45;;;;;;;38.90;18.85;;;;;;;6.06;100.00;101079.69;4970399;28;20510;-72
2020/12/19 01:58:11;;;;;;;38.08;17.08;;;;;;;6.09;100.00;101075.13;4968152;28;20041;-72
2020/12/19 02:00:40;;;;;;;35.83;17.83;;;;;;;6.09;100.00;101075.13;4968666;28;20027;-72
2020/12/19 02:03:06;;;;;;;37.92;17.55;;;;;;;6.00;100.00;101066.59;4969571;28;20062;-72
2020/12/19 02:05:33;;;;;;;41.15;19.83;;;;;;;6.05;100.00;101067.28;4968716;28;20460;-72
2020/12/19 02:08:00;;;;;;;36.70;18.02;;;;;;;6.08;100.00;101073.38;4967015;28;20109;-72
2020/12/19 02:10:32;;;;;;;37.22;18.33;;;;;;;6.04;100.00;101071.78;4951406;28;20037;-72
2020/12/19 02:13:06;;;;;;;38.20;18.10;;;;;;;6.05;100.00;101062.81;4967993;28;20035;-72
2020/12/19 02:15:42;;;;;;;41.03;18.67;;;;;;;6.08;100.00;101064.53;4969651;28;20081;-72
2020/12/19 02:18:09;;;;;;;35.55;17.40;;;;;;;6.06;100.00;101069.03;4970341;28;20062;-72
2020/12/19 02:20:34;;;;;;;37.50;17.48;;;;;;;6.06;100.00;101069.03;4952844;28;20027;-72
2020/12/19 02:23:02;;;;;;;37.58;18.05;;;;;;;6.12;100.00;101062.59;4964697;28;20406;-72
2020/12/19 02:25:45;;;;;;;39.53;18.40;;;;;;;6.10;100.00;101060.00;4970612;28;20206;-72
2020/12/19 02:28:10;;;;;;;36.45;18.63;;;;;;;6.10;100.00;101054.66;4965370;28;20038;-72
2020/12/19 02:30:39;;;;;;;39.95;16.30;;;;;;;6.12;100.00;101058.13;4969800;28;20234;-73
2020/12/19 02:33:04;;;;;;;40.15;17.73;;;;;;;6.12;100.00;101063.44;4969799;28;20035;-72
2020/12/19 02:35:30;;;;;;;32.30;17.55;;;;;;;6.03;100.00;101054.06;4968795;28;20403;-72
2020/12/19 02:37:59;;;;;;;35.53;17.17;;;;;;;6.05;100.00;101060.16;4952878;28;20113;-72
2020/12/19 02:40:24;;;;;;;37.38;17.48;;;;;;;6.05;100.00;101051.31;4969407;28;20039;-72
2020/12/19 02:42:50;;;;;;;34.78;17.73;;;;;;;6.06;100.00;101051.25;4970213;28;20043;-71
2020/12/19 02:45:15;;;;;;;36.22;16.98;;;;;;;6.03;100.00;101059.38;4969586;28;20035;-72
2020/12/19 02:47:40;;;;;;;32.65;17.90;;;;;;;6.05;100.00;101051.31;4949193;28;20031;-72
2020/12/19 02:50:07;;;;;;;35.50;16.67;;;;;;;6.09;100.00;101047.59;4968779;28;20038;-72
2020/12/19 02:52:32;;;;;;;37.63;18.63;;;;;;;6.06;100.00;101047.72;4967579;28;20027;-72
2020/12/19 02:54:58;;;;;;;35.33;17.52;;;;;;;6.08;100.00;101041.41;4969188;28;20704;-72
2020/12/19 02:57:24;;;;;;;31.73;17.27;;;;;;;5.92;100.00;101029.63;4967512;28;20054;-72
2020/12/19 02:59:49;;;;;;;40.15;17.30;;;;;;;5.92;100.00;101028.78;4950817;28;20230;-72
2020/12/19 03:02:15;;;;;;;32.22;17.10;;;;;;;5.99;100.00;101025.78;4968874;28;20045;-72
2020/12/19 03:04:40;;;;;;;42.72;19.83;;;;;;;5.93;100.00;101025.16;4966826;28;20050;-72
2020/12/19 03:07:05;;;;;;;38.33;18.65;;;;;;;6.01;100.00;101015.06;4968260;28;20038;-72
2020/12/19 03:09:31;;;;;;;34.83;17.65;;;;;;;5.97;100.00;101016.13;4968918;28;20029;-72
2020/12/19 03:11:56;;;;;;;35.50;17.75;;;;;;;6.05;100.00;101014.00;4968916;28;20027;-72
2020/12/19 03:14:22;;;;;;;34.40;17.23;;;;;;;6.09;100.00;101010.28;4968296;28;20031;-72
2020/12/19 03:16:47;;;;;;;36.60;17.05;;;;;;;6.14;100.00;101015.44;4951097;28;20062;-72
2020/12/19 03:19:12;;;;;;;36.45;17.08;;;;;;;6.11;100.00;101012.91;4967788;28;20045;-72
2020/12/19 03:21:38;;;;;;;34.03;16.95;;;;;;;6.22;100.00;101019.53;4967625;28;20035;-72
2020/12/19 03:24:04;;;;;;;35.08;16.67;;;;;;;6.24;100.00;101009.63;4967582;28;20038;-72
2020/12/19 03:26:29;;;;;;;30.38;15.75;;;;;;;6.17;100.00;101005.53;4967627;28;20165;-72
2020/12/19 03:28:54;;;;;;;33.42;16.02;;;;;;;6.19;100.00;101002.78;4967901;28;20384;-72
2020/12/19 03:31:20;;;;;;;33.75;17.40;;;;;;;6.20;100.00;101002.72;4950654;28;20053;-72
2020/12/19 03:33:45;;;;;;;38.78;17.65;;;;;;;6.30;100.00;101006.72;4968361;28;20026;-72
2020/12/19 03:36:11;;;;;;;33.33;17.27;;;;;;;6.26;100.00;100997.13;4969163;28;20406;-72
2020/12/19 03:38:36;;;;;;;35.42;16.90;;;;;;;6.18;100.00;100993.91;4965551;28;20039;-72
2020/12/19 03:41:01;;;;;;;30.65;17.13;;;;;;;6.18;100.00;100993.91;4967004;28;20507;-72
2020/12/19 03:43:27;;;;;;;35.50;18.48;;;;;;;6.13;100.00;100995.91;4951057;28;20034;-72
2020/12/19 03:45:52;;;;;;;35.95;17.83;;;;;;;6.06;100.00;100995.28;4968330;28;20372;-72
2020/12/19 03:48:17;;;;;;;34.20;16.52;;;;;;;6.16;100.00;100997.59;4951235;28;20078;-72
2020/12/19 03:50:43;;;;;;;40.45;18.13;;;;;;;6.11;100.00;100989.75;4968200;28;20046;-72
2020/12/19 03:53:08;;;;;;;34.55;16.58;;;;;;;6.07;100.00;100997.03;4968365;28;20031;-72
2020/12/19 03:55:34;;;;;;;34.95;17.60;;;;;;;6.11;100.00;101002.25;4951897;28;20042;-72
2020/12/19 03:57:59;;;;;;;34.90;17.27;;;;;;;6.09;100.00;101008.50;4968809;28;20031;-72
2020/12/19 04:00:24;;;;;;;36.47;17.67;;;;;;;6.08;100.00;101004.09;4972599;28;20443;-72
2020/12/19 04:02:50;;;;;;;36.25;16.98;;;;;;;6.18;100.00;100995.69;4972724;28;20034;-73
2020/12/19 04:05:15;;;;;;;35.95;16.45;;;;;;;6.18;100.00;100999.25;4970515;28;20454;-72
2020/12/19 04:07:40;;;;;;;33.47;18.25;;;;;;;6.00;100.00;101000.88;4972065;28;20062;-72
2020/12/19 04:10:07;;;;;;;36.53;18.35;;;;;;;6.11;100.00;100987.09;4971926;28;20353;-72
2020/12/19 04:12:33;;;;;;;32.83;17.65;;;;;;;6.07;100.00;100990.81;4970370;28;20149;-72
2020/12/19 04:14:59;;;;;;;35.95;17.58;;;;;;;5.98;100.00;100985.91;4972351;28;20162;-72
2020/12/19 04:17:24;;;;;;;37.90;18.83;;;;;;;6.00;100.00;100984.00;4971498;28;20035;-72
2020/12/19 04:19:50;;;;;;;37.83;16.70;;;;;;;5.93;100.00;100983.41;4969490;28;20510;-72
2020/12/19 04:22:16;;;;;;;36.25;18.42;;;;;;;6.07;100.00;100981.03;4970368;28;20045;-72
2020/12/19 04:24:42;;;;;;;32.58;17.52;;;;;;;5.93;100.00;100971.88;4969522;28;20043;-73
2020/12/19 04:27:07;;;;;;;34.10;16.60;;;;;;;6.02;100.00;100971.50;4953934;28;20471;-72
2020/12/19 04:29:33;;;;;;;36.55;17.55;;;;;;;6.06;100.00;100967.78;4972343;28;20034;-72
2020/12/19 04:31:59;;;;;;;38.10;19.00;;;;;;;6.06;100.00;100963.31;4953898;28;20050;-72
2020/12/19 04:34:25;;;;;;;36.08;17.95;;;;;;;6.01;100.00;100961.78;4971619;28;20026;-72
2020/12/19 04:36:51;;;;;;;39.63;18.90;;;;;;;6.03;100.00;100963.44;4974035;28;20053;-72
2020/12/19 04:39:16;;;;;;;34.00;18.17;;;;;;;6.02;100.00;100968.84;4970205;28;20063;-72
2020/12/19 04:41:42;;;;;;;41.03;18.80;;;;;;;6.02;100.00;100960.84;4971512;28;20171;-72
2020/12/19 04:44:08;;;;;;;37.95;18.85;;;;;;;6.01;100.00;100959.09;4972130;28;20042;-72
2020/12/19 04:46:39;;;;;;;39.20;19.92;;;;;;;5.95;100.00;100954.91;4970880;28;20073;-72
2020/12/19 04:49:06;;;;;;;37.45;19.25;;;;;;;6.05;100.00;100956.25;4970766;28;20118;-73
2020/12/19 04:51:33;;;;;;;37.30;19.17;;;;;;;5.94;100.00;100952.28;4969924;28;20394;-72
2020/12/19 04:53:58;;;;;;;38.75;20.35;;;;;;;5.99;100.00;100951.16;4970555;28;20051;-72
2020/12/19 04:56:24;;;;;;;39.33;18.45;;;;;;;5.94;100.00;100946.97;4970511;28;20158;-72
2020/12/19 04:59:01;;;;;;;36.10;19.00;;;;;;;5.91;100.00;100947.09;4969842;28;20062;-72
2020/12/19 05:01:27;;;;;;;39.03;20.00;;;;;;;5.94;100.00;100946.97;4971140;28;20166;-72
2020/12/19 05:03:53;;;;;;;39.58;20.48;;;;;;;5.92;100.00;100938.19;4971778;28;20117;-72
2020/12/19 05:06:23;;;;;;;37.42;20.08;;;;;;;5.93;100.00;100934.56;4965563;28;20050;-72
2020/12/19 05:08:50;;;;;;;40.90;20.83;;;;;;;5.86;100.00;100935.75;4970719;28;20042;-72
2020/12/19 05:11:15;;;;;;;43.08;20.17;;;;;;;5.94;100.00;100930.97;4969826;28;20714;-72
2020/12/19 05:13:42;;;;;;;39.13;19.45;;;;;;;5.97;100.00;100922.88;4972242;28;20023;-72
2020/12/19 05:16:15;;;;;;;38.58;18.58;;;;;;;5.95;100.00;100922.06;4969548;28;20361;-72
2020/12/19 05:18:41;;;;;;;33.90;17.52;;;;;;;5.93;100.00;100922.13;4970212;28;20043;-73
2020/12/19 05:21:08;;;;;;;35.67;18.48;;;;;;;5.92;100.00;100912.41;4972467;28;21712;-73
2020/12/19 05:23:35;;;;;;;41.13;17.98;;;;;;;5.93;100.00;100921.25;4971158;28;20180;-72
2020/12/19 05:26:06;;;;;;;37.47;18.55;;;;;;;5.96;100.00;100915.81;4970684;28;20034;-73
2020/12/19 05:28:37;;;;;;;38.53;18.70;;;;;;;5.92;100.00;100914.22;4967530;28;20043;-73
2020/12/19 05:31:04;;;;;;;38.63;19.13;;;;;;;5.90;100.00;100910.75;4966947;28;20031;-72
2020/12/19 05:33:31;;;;;;;39.25;19.17;;;;;;;5.91;100.00;100912.47;4971402;28;20027;-72
2020/12/19 05:35:57;;;;;;;37.35;19.00;;;;;;;5.89;100.00;100907.19;4970817;28;20031;-72
2020/12/19 05:38:27;;;;;;;43.40;18.67;;;;;;;5.86;100.00;100911.78;4954757;28;20038;-72
2020/12/19 05:40:52;;;;;;;37.90;19.30;;;;;;;5.89;100.00;100914.31;4936753;28;20079;-72
2020/12/19 05:43:18;;;;;;;35.83;18.35;;;;;;;5.92;100.00;100901.75;4969749;28;20128;-72
2020/12/19 05:45:43;;;;;;;40.25;19.98;;;;;;;5.96;100.00;100903.34;4970090;28;20029;-72
2020/12/19 05:48:08;;;;;;;42.92;19.67;;;;;;;5.94;100.00;100909.66;4965636;28;20039;-72
2020/12/19 05:50:34;;;;;;;41.33;19.52;;;;;;;5.98;100.00;100929.94;4967015;28;20047;-72
2020/12/19 05:53:02;;;;;;;38.95;18.73;;;;;;;5.93;100.00;100923.91;4970770;28;20034;-72
2020/12/19 05:55:28;;;;;;;38.60;18.63;;;;;;;5.97;100.00;100917.53;4949238;28;20039;-72
2020/12/19 05:57:53;;;;;;;39.88;18.80;;;;;;;6.00;100.00;100920.06;4970051;28;20432;-72
2020/12/19 06:00:19;;;;;;;39.03;18.65;;;;;;;6.03;100.00;100914.63;4970864;28;20042;-72
2020/12/19 06:02:45;;;;;;;36.83;19.92;;;;;;;5.99;100.00;100913.00;4967451;28;20039;-72
2020/12/19 06:05:12;;;;;;;37.00;18.75;;;;;;;6.10;100.00;100905.44;4953060;28;20638;-72
2020/12/19 06:07:41;;;;;;;39.03;19.70;;;;;;;6.08;100.00;100912.63;4953361;28;20038;-73
2020/12/19 06:10:09;;;;;;;38.30;19.98;;;;;;;6.10;100.00;100910.75;4954339;28;20118;-72
2020/12/19 06:12:47;;;;;;;39.30;18.17;;;;;;;6.10;100.00;100902.78;4952778;28;20031;-72
2020/12/19 06:15:41;;;;;;;36.42;18.65;;;;;;;6.03;100.00;100898.63;4969777;28;20149;-72
2020/12/19 06:18:28;;;;;;;40.83;18.90;;;;;;;5.95;100.00;100906.94;4968435;28;20093;-72
2020/12/19 06:20:54;;;;;;;39.72;19.77;;;;;;;6.07;100.00;100892.22;4969770;28;20035;-73
2020/12/19 06:23:20;;;;;;;34.63;19.13;;;;;;;6.05;100.00;100891.41;4953000;28;20054;-72
2020/12/19 06:25:47;;;;;;;35.42;18.75;;;;;;;6.11;100.00;100885.81;4969839;28;20106;-73
2020/12/19 06:28:41;;;;;;;36.35;18.95;;;;;;;6.09;100.00;100882.38;4969667;28;20045;-72
2020/12/19 06:31:09;;;;;;;41.63;19.00;;;;;;;6.05;100.00;100880.75;4968036;28;20042;-72
2020/12/19 06:33:37;;;;;;;40.60;19.88;;;;;;;5.93;100.00;100881.28;4969256;28;20623;-72
2020/12/19 06:36:15;;;;;;;34.72;17.35;;;;;;;5.96;100.00;100873.19;4968616;28;20034;-73
2020/12/19 06:39:05;;;;;;;38.80;17.80;;;;;;;5.94;100.00;100888.34;4968566;28;20031;-72
2020/12/19 06:41:55;;;;;;;34.90;18.02;;;;;;;5.99;100.00;100905.88;4968458;28;20506;-72
2020/12/19 06:44:33;;;;;;;33.45;18.80;;;;;;;5.92;100.00;100896.44;4966238;28;20049;-72
2020/12/19 06:47:01;;;;;;;35.97;17.27;;;;;;;5.97;100.00;100898.91;4969728;28;20059;-72
2020/12/19 06:49:27;;;;;;;39.38;20.55;;;;;;;5.98;100.00;100904.16;4969803;28;20077;-72
2020/12/19 06:52:00;;;;;;;36.20;18.33;;;;;;;5.98;100.00;100905.97;4969873;28;20039;-72
2020/12/19 06:54:27;;;;;;;40.55;18.13;;;;;;;5.91;100.00;100907.16;4969243;28;20023;-72
2020/12/19 06:56:52;;;;;;;37.47;17.42;;;;;;;6.05;100.00;100894.09;4967303;28;20115;-72
2020/12/19 06:59:22;;;;;;;37.88;18.85;;;;;;;6.08;100.00;100904.63;4969724;28;20120;-72
2020/12/19 07:01:47;;;;;;;32.28;17.00;;;;;;;6.01;100.00;100912.00;4968873;28;20042;-73
2020/12/19 07:04:33;;;;;;;35.25;18.23;;;;;;;6.04;100.00;100911.03;4968781;28;20026;-72
2020/12/19 07:07:03;;;;;;;31.67;16.95;;;;;;;6.10;100.00;100900.09;4969082;28;20038;-74
2020/12/19 07:09:29;;;;;;;33.35;17.88;;;;;;;6.13;100.00;100904.41;4965444;28;20043;-72
2020/12/19 07:11:55;;;;;;;36.90;19.05;;;;;;;6.22;100.00;100904.91;4950301;28;20116;-73
2020/12/19 07:14:20;;;;;;;33.72;18.10;;;;;;;6.24;100.00;100907.47;4955909;28;20039;-72
2020/12/19 07:16:50;;;;;;;34.03;17.55;;;;;;;6.28;100.00;100907.31;4951385;28;20038;-73
2020/12/19 07:19:20;;;;;;;32.92;17.55;;;;;;;6.33;100.00;100902.63;4966848;28;20037;-72
2020/12/19 07:21:46;;;;;;;33.40;16.30;;;;;;;6.25;100.00;100915.41;4969522;28;20034;-73
2020/12/19 07:24:12;;;;;;;33.13;17.60;;;;;;;6.30;100.00;100912.53;4968911;28;20042;-72
2020/12/19 07:26:38;;;;;;;33.63;17.50;;;;;;;6.31;100.00;100919.63;4967216;28;20423;-72
2020/12/19 07:29:15;;;;;;;34.67;17.23;;;;;;;6.29;100.00;100921.50;4968029;28;20036;-72
2020/12/19 07:31:45;;;;;;;33.08;17.70;;;;;;;6.32;100.00;100924.03;4950164;28;20035;-72
2020/12/19 07:34:11;;;;;;;34.17;17.55;;;;;;;6.34;100.00;100916.84;4971787;28;20490;-72
2020/12/19 07:36:39;;;;;;;34.13;18.77;;;;;;;6.44;100.00;100915.47;4972993;28;20030;-72
2020/12/19 07:39:06;;;;;;;37.33;18.88;;;;;;;6.44;100.00;100905.69;4970261;28;20041;-74
2020/12/19 07:41:31;;;;;;;34.33;17.65;;;;;;;6.45;100.00;100907.44;4971556;28;20038;-73
2020/12/19 07:44:13;;;;;;;33.30;17.88;;;;;;;6.41;100.00;100911.16;4975976;28;20046;-74
2020/12/19 07:46:56;;;;;;;33.63;17.70;;;;;;;6.52;100.00;100905.34;4973338;28;20035;-73
2020/12/19 07:49:30;;;;;;;34.40;18.00;;;;;;;6.50;100.00;100910.75;4971859;28;20483;-74
2020/12/19 07:52:09;;;;;;;41.80;19.05;;;;;;;6.48;100.00;100914.44;4973188;28;20066;-73
2020/12/19 07:54:36;;;;;;;35.97;16.52;;;;;;;6.53;100.00;100908.88;4953994;28;20038;-73
2020/12/19 07:57:02;;;;;;;31.88;16.48;;;;;;;6.62;100.00;100905.78;4970562;28;20105;-73
2020/12/19 07:59:27;;;;;;;31.40;17.02;;;;;;;6.61;100.00;100904.94;4971424;28;20038;-73
2020/12/19 08:02:00;;;;;;;36.15;17.38;;;;;;;6.67;100.00;100911.78;4971472;28;20046;-74
2020/12/19 08:04:26;;;;;;;34.15;18.42;;;;;;;6.60;100.00;100913.03;4972554;28;20382;-72
2020/12/19 08:06:52;;;;;;;32.70;17.60;;;;;;;6.70;100.00;100901.84;4973730;28;20054;-73
2020/12/19 08:09:19;;;;;;;32.38;18.40;;;;;;;6.75;100.00;100898.97;4973460;28;20046;-74
2020/12/19 08:11:46;;;;;;;33.70;18.23;;;;;;;6.71;100.00;100900.06;4973588;28;20316;-74
2020/12/19 08:14:14;;;;;;;34.33;18.17;;;;;;;6.81;100.00;100898.69;4957091;28;20606;-74
2020/12/19 08:16:40;;;;;;;37.20;17.30;;;;;;;6.83;100.00;100883.50;4972281;28;20034;-74
2020/12/19 08:19:07;;;;;;;31.30;16.80;;;;;;;6.75;100.00;100883.84;4979636;28;20038;-74
2020/12/19 08:21:34;;;;;;;31.38;16.73;;;;;;;6.83;100.00;100888.81;4973080;28;20110;-73
2020/12/19 08:24:01;;;;;;;32.80;16.50;;;;;;;6.84;100.00;100888.75;4973531;28;20034;-74
2020/12/19 08:26:26;;;;;;;32.05;17.38;;;;;;;6.73;100.00;100895.50;4970960;28;20042;-74
2020/12/19 08:29:02;;;;;;;34.67;18.67;;;;;;;6.81;100.00;100886.22;4952343;28;20399;-73
2020/12/19 08:31:28;;;;;;;37.67;18.10;;;;;;;6.95;100.00;100885.59;4968204;28;20030;-73
2020/12/19 08:33:55;;;;;;;31.15;18.20;;;;;;;6.90;100.00;100880.47;4970926;28;20490;-73
2020/12/19 08:36:21;;;;;;;33.58;17.75;;;;;;;6.95;100.00;100879.38;4971048;28;20046;-73
2020/12/19 08:38:46;;;;;;;34.10;17.75;;;;;;;6.93;100.00;100892.78;4972183;28;20041;-75
2020/12/19 08:41:20;;;;;;;37.53;18.70;;;;;;;7.06;100.00;100887.75;4954138;28;20065;-73
2020/12/19 08:43:46;;;;;;;45.40;19.00;;;;;;;7.10;100.00;100900.88;4972451;28;20542;-74
2020/12/19 08:46:14;;;;;;;34.85;16.45;;;;;;;7.16;100.00;100894.41;4971701;28;20043;-73
2020/12/19 08:48:43;;;;;;;33.10;17.42;;;;;;;7.16;100.00;100894.41;4971889;28;20042;-73
2020/12/19 08:51:10;;;;;;;36.55;16.20;;;;;;;7.16;100.00;100895.22;4954770;28;20038;-73
2020/12/19 08:53:36;;;;;;;32.28;16.98;;;;;;;7.22;100.00;100894.94;4973806;28;20043;-75
2020/12/19 08:56:13;;;;;;;29.90;16.95;;;;;;;7.25;100.00;100892.13;4956688;28;20077;-75
2020/12/19 08:58:39;;;;;;;29.65;16.35;;;;;;;7.29;100.00;100906.19;4972858;28;20483;-74
2020/12/19 09:01:15;;;;;;;29.83;15.75;;;;;;;7.34;100.00;100898.84;4971143;28;20041;-74
2020/12/19 09:03:42;;;;;;;29.40;16.38;;;;;;;7.35;100.00;100902.38;4955506;28;20039;-73
2020/12/19 09:06:10;;;;;;;28.63;16.67;;;;;;;7.30;100.00;100898.13;4979296;28;20035;-74
2020/12/19 09:08:44;;;;;;;32.22;16.27;;;;;;;7.41;100.00;100894.06;4971672;28;20027;-74
2020/12/19 09:11:32;;;;;;;33.28;17.85;;;;;;;7.41;100.00;100902.94;4971253;28;20038;-73
2020/12/19 09:14:05;;;;;;;33.50;16.52;;;;;;;7.40;100.00;100906.56;4969613;28;20034;-73
2020/12/19 09:16:31;;;;;;;34.03;16.98;;;;;;;7.48;100.00;100901.69;4972479;28;20045;-74
2020/12/19 09:18:57;;;;;;;35.95;17.67;;;;;;;7.55;100.00;100904.94;4970355;28;20031;-73
2020/12/19 09:21:22;;;;;;;34.38;18.00;;;;;;;7.59;100.00;100903.88;4974001;28;20402;-74
2020/12/19 09:23:47;;;;;;;30.77;16.98;;;;;;;7.59;100.00;100907.38;4972210;28;20038;-73
2020/12/19 09:26:13;;;;;;;33.65;18.00;;;;;;;7.55;100.00;100910.28;4971494;28;20504;-74
2020/12/19 09:28:38;;;;;;;32.05;17.63;;;;;;;7.59;100.00;100909.22;4971522;28;20038;-73
2020/12/19 09:31:04;;;;;;;41.92;19.60;;;;;;;7.68;100.00;100908.75;4962169;28;20027;-74
2020/12/19 09:33:29;;;;;;;33.25;16.95;;;;;;;7.75;100.00;100910.19;4971777;28;20115;-73
2020/12/19 09:35:55;;;;;;;37.60;17.15;;;;;;;7.77;100.00;100913.66;4971003;28;20022;-73
2020/12/19 09:38:21;;;;;;;33.03;17.05;;;;;;;7.77;100.00;100919.00;4962206;28;20489;-74
2020/12/19 09:40:47;;;;;;;28.23;15.93;;;;;;;7.86;100.00;100921.19;4972611;28;20039;-74
2020/12/19 09:43:12;;;;;;;25.70;15.07;;;;;;;7.86;100.00;100921.19;4972044;28;20434;-73
2020/12/19 09:45:38;;;;;;;26.98;15.95;;;;;;;7.95;100.00;100928.78;4974150;28;20066;-73
2020/12/19 09:48:04;;;;;;;35.70;18.23;;;;;;;8.01;100.00;100919.56;4972438;28;20511;-73
2020/12/19 09:50:30;;;;;;;31.35;15.00;;;;;;;8.03;100.00;100921.19;4971367;28;20018;-73
2020/12/19 09:52:56;;;;;;;30.95;16.75;;;;;;;8.08;100.00;100913.81;4954893;28;20058;-74
2020/12/19 09:55:22;;;;;;;25.85;15.52;;;;;;;8.07;100.00;100916.59;4954475;28;20062;-73
2020/12/19 09:57:48;;;;;;;29.20;16.65;;;;;;;8.06;100.00;100910.38;4952643;28;20082;-74
2020/12/19 10:00:14;;;;;;;29.42;16.60;;;;;;;8.15;100.00;100913.53;4969628;28;20399;-73
2020/12/19 10:02:41;;;;;;;31.20;16.08;;;;;;;8.10;100.00;100903.91;4953609;28;20031;-73
2020/12/19 10:05:07;;;;;;;30.30;16.67;;;;;;;8.24;100.00;100910.38;4965144;28;20034;-74
2020/12/19 10:07:34;;;;;;;35.70;16.35;;;;;;;8.27;100.00;100905.72;4970981;28;20053;-73
2020/12/19 10:09:59;;;;;;;31.40;15.75;;;;;;;8.37;100.00;100914.19;4971045;28;20034;-73
2020/12/19 10:12:25;;;;;;;28.08;17.05;;;;;;;8.45;100.00;100912.84;4971108;28;20031;-73
2020/12/19 10:14:50;;;;;;;29.40;15.43;;;;;;;8.42;100.00;100901.41;4956096;28;20022;-74
2020/12/19 10:17:15;;;;;;;27.75;16.17;;;;;;;8.54;100.00;100900.78;4940270;28;20030;-73
2020/12/19 10:19:41;;;;;;;24.50;14.65;;;;;;;8.58;100.00;100913.03;4953553;28;20053;-73
2020/12/19 10:22:06;;;;;;;27.75;15.27;;;;;;;8.65;100.00;100897.50;4970577;28;20026;-73
2020/12/19 10:24:32;;;;;;;28.20;15.07;;;;;;;8.69;100.00;100899.97;4971029;28;20487;-73
2020/12/19 10:26:57;;;;;;;27.23;14.98;;;;;;;8.75;100.00;100904.13;4971079;28;20034;-73
2020/12/19 10:29:23;;;;;;;27.95;14.75;;;;;;;8.81;100.00;100893.97;4970441;28;20549;-75
2020/12/19 10:31:48;;;;;;;26.00;15.02;;;;;;;8.78;100.00;100882.53;4948891;28;20071;-72
2020/12/19 10:34:14;;;;;;;29.58;15.77;;;;;;;8.84;100.00;100900.94;4969810;28;20070;-73
2020/12/19 10:36:39;;;;;;;29.50;15.25;;;;;;;8.89;100.00;100885.47;4970266;28;20035;-73
2020/12/19 10:39:05;;;;;;;26.55;14.77;;;;;;;9.04;100.00;100886.47;4971005;28;20030;-74
2020/12/19 10:41:31;;;;;;;29.08;15.38;;;;;;;8.95;100.00;100878.97;4966434;28;20039;-73
2020/12/19 10:43:56;;;;;;;27.40;14.57;;;;;;;9.02;100.00;100881.19;4952737;28;20049;-73
2020/12/19 10:46:24;;;;;;;25.63;13.80;;;;;;;8.97;100.00;100877.03;4969027;28;20514;-73
2020/12/19 10:48:49;;;;;;;23.42;14.27;;;;;;;9.05;100.00;100869.47;4952903;28;20117;-74
2020/12/19 10:51:15;;;;;;;27.65;15.30;;;;;;;8.96;100.00;100876.16;4970072;28;20034;-73
2020/12/19 10:53:41;;;;;;;25.52;14.18;;;;;;;9.05;100.00;100874.81;4970878;28;20018;-73
2020/12/19 10:56:07;;;;;;;27.08;14.88;;;;;;;9.04;100.00;100875.75;4969270;28;20109;-73
2020/12/19 10:58:33;;;;;;;23.83;13.98;;;;;;;9.13;100.00;100868.09;4969293;28;20551;-73
2020/12/19 11:00:58;;;;;;;26.02;15.43;;;;;;;9.23;100.00;100857.72;4953104;28;20042;-74
2020/12/19 11:03:24;;;;;;;24.98;13.30;;;;;;;9.28;100.00;100855.63;4951002;28;20039;-74
2020/12/19 11:05:49;;;;;;;24.80;13.10;;;;;;;9.30;100.00;100848.38;4966739;28;20039;-73
2020/12/19 11:08:14;;;;;;;25.35;14.18;;;;;;;9.34;100.00;100847.25;4966874;28;20085;-74
2020/12/19 11:10:42;;;;;;;24.50;12.63;;;;;;;9.40;100.00;100836.19;4950118;28;20670;-74